MKY weather

Mackay Airport
Mackay, Queensland, Australia

Public forecast

Using degrees Celsius for public forecast. Weather courtesy of forecast.io.

METAR (pilot weather report)

Retrieved 2017/08/17 02:00 UTC (59 minutes ago):

YBMK 170200Z AUTO 34012KT 9999 // NCD 27/17 Q1014

TAF (pilot weather forecast)

Forecast is more than 12 hours old.

Closest forecast is Hamilton Island Airport, 50.5 nm (93.5 km) NNW. Retrieved 2017/06/25 18:00 UTC (2 months ago):

TAF YBHM 251717Z 2518/2606 16014KT 9999 FEW008 FM260000 16015KT 9999 FEW025